Houston, Texas
Traffic Map
Current Weather Conditions
Houston, Texas
Overcast
Overcast
79°
Feels Like: 83°
Wind Chill: 79° Ceiling: 11000
Heat Index: 83° Visibility: 10mi
Dew Point: 75° Wind: 0mph
Humidity: 88% Direction: ° ()
Pressure: 29.94in Gusts: 0mph
Raw Report DataKIAH 271053Z 00000KT 10SM FEW020 OVC110 26/24 A2994 RMK AO2 SLP136 T02610239
Traffic Incident Summary
Active as of:
Severity:
Category:
InformationThere was an issue retrieving the traffic information for this location. Please try a different location or try again shortly.
Advertisements
Track Severe Weather on mobile